sensor_id;sensor_type;location;lat;lon;timestamp;P1;durP1;ratioP1;P2;durP2;ratioP2
18206;SDS011;9229;52.354;20.886;2024-03-07T00:03:27;27.45;;;13.65;;
18206;SDS011;9229;52.354;20.886;2024-03-07T00:08:32;30.13;;;13.73;;
18206;SDS011;9229;52.354;20.886;2024-03-07T00:13:34;24.50;;;12.60;;
18206;SDS011;9229;52.354;20.886;2024-03-07T00:18:36;33.00;;;13.82;;
18206;SDS011;9229;52.354;20.886;2024-03-07T00:23:42;28.88;;;14.18;;
18206;SDS011;9229;52.354;20.886;2024-03-07T00:28:44;36.40;;;15.57;;
18206;SDS011;9229;52.354;20.886;2024-03-07T00:33:47;25.90;;;14.48;;
18206;SDS011;9229;52.354;20.886;2024-03-07T00:38:51;29.08;;;14.05;;
18206;SDS011;9229;52.354;20.886;2024-03-07T00:43:54;28.98;;;13.30;;
18206;SDS011;9229;52.354;20.886;2024-03-07T00:48:58;30.90;;;14.85;;
18206;SDS011;9229;52.354;20.886;2024-03-07T00:54:02;27.23;;;12.93;;
18206;SDS011;9229;52.354;20.886;2024-03-07T00:59:04;27.63;;;12.77;;
18206;SDS011;9229;52.354;20.886;2024-03-07T01:04:07;30.17;;;13.73;;
18206;SDS011;9229;52.354;20.886;2024-03-07T01:09:11;32.03;;;14.02;;
18206;SDS011;9229;52.354;20.886;2024-03-07T01:14:16;27.63;;;13.57;;
18206;SDS011;9229;52.354;20.886;2024-03-07T01:19:18;26.73;;;13.27;;
18206;SDS011;9229;52.354;20.886;2024-03-07T01:24:22;29.27;;;12.93;;
18206;SDS011;9229;52.354;20.886;2024-03-07T01:29:25;26.70;;;12.95;;
18206;SDS011;9229;52.354;20.886;2024-03-07T01:34:28;25.08;;;13.52;;
18206;SDS011;9229;52.354;20.886;2024-03-07T01:39:31;30.20;;;12.90;;
18206;SDS011;9229;52.354;20.886;2024-03-07T01:44:33;28.02;;;13.40;;
18206;SDS011;9229;52.354;20.886;2024-03-07T01:49:36;31.73;;;12.82;;
18206;SDS011;9229;52.354;20.886;2024-03-07T01:54:41;25.20;;;12.55;;
18206;SDS011;9229;52.354;20.886;2024-03-07T01:59:44;26.92;;;13.18;;
18206;SDS011;9229;52.354;20.886;2024-03-07T02:04:46;27.40;;;13.98;;
18206;SDS011;9229;52.354;20.886;2024-03-07T02:09:58;22.85;;;11.65;;
18206;SDS011;9229;52.354;20.886;2024-03-07T02:15:01;30.25;;;13.15;;
18206;SDS011;9229;52.354;20.886;2024-03-07T02:20:04;24.63;;;13.05;;
18206;SDS011;9229;52.354;20.886;2024-03-07T02:25:10;29.38;;;12.90;;
18206;SDS011;9229;52.354;20.886;2024-03-07T02:30:12;28.05;;;13.10;;
18206;SDS011;9229;52.354;20.886;2024-03-07T02:35:17;30.08;;;13.38;;
18206;SDS011;9229;52.354;20.886;2024-03-07T02:40:21;29.20;;;12.50;;
18206;SDS011;9229;52.354;20.886;2024-03-07T02:45:23;26.73;;;14.20;;
18206;SDS011;9229;52.354;20.886;2024-03-07T02:50:26;28.67;;;12.43;;
18206;SDS011;9229;52.354;20.886;2024-03-07T02:55:30;27.95;;;11.98;;
18206;SDS011;9229;52.354;20.886;2024-03-07T03:00:32;27.45;;;12.77;;
18206;SDS011;9229;52.354;20.886;2024-03-07T03:05:35;28.05;;;13.90;;
18206;SDS011;9229;52.354;20.886;2024-03-07T03:10:38;26.65;;;13.43;;
18206;SDS011;9229;52.354;20.886;2024-03-07T03:15:41;24.98;;;12.57;;
18206;SDS011;9229;52.354;20.886;2024-03-07T03:20:43;24.45;;;11.93;;
18206;SDS011;9229;52.354;20.886;2024-03-07T03:25:49;27.75;;;13.13;;
18206;SDS011;9229;52.354;20.886;2024-03-07T03:30:52;27.65;;;12.85;;
18206;SDS011;9229;52.354;20.886;2024-03-07T03:35:54;24.63;;;12.23;;
18206;SDS011;9229;52.354;20.886;2024-03-07T03:40:58;25.27;;;13.40;;
18206;SDS011;9229;52.354;20.886;2024-03-07T03:46:00;25.23;;;12.50;;
18206;SDS011;9229;52.354;20.886;2024-03-07T03:51:04;24.90;;;12.65;;
18206;SDS011;9229;52.354;20.886;2024-03-07T03:56:11;28.25;;;13.13;;
18206;SDS011;9229;52.354;20.886;2024-03-07T04:01:13;22.67;;;11.95;;
18206;SDS011;9229;52.354;20.886;2024-03-07T04:06:16;23.42;;;11.57;;
18206;SDS011;9229;52.354;20.886;2024-03-07T04:11:21;26.80;;;12.25;;
18206;SDS011;9229;52.354;20.886;2024-03-07T04:16:23;27.10;;;12.13;;
18206;SDS011;9229;52.354;20.886;2024-03-07T04:21:25;28.88;;;12.88;;
18206;SDS011;9229;52.354;20.886;2024-03-07T04:26:29;32.53;;;13.10;;
18206;SDS011;9229;52.354;20.886;2024-03-07T04:31:32;23.00;;;12.35;;
18206;SDS011;9229;52.354;20.886;2024-03-07T04:36:34;30.25;;;13.20;;
18206;SDS011;9229;52.354;20.886;2024-03-07T04:41:38;29.25;;;12.40;;
18206;SDS011;9229;52.354;20.886;2024-03-07T04:46:41;23.30;;;11.73;;
18206;SDS011;9229;52.354;20.886;2024-03-07T04:51:44;24.50;;;12.32;;
18206;SDS011;9229;52.354;20.886;2024-03-07T04:56:49;25.80;;;11.45;;
18206;SDS011;9229;52.354;20.886;2024-03-07T05:01:52;28.45;;;10.68;;
18206;SDS011;9229;52.354;20.886;2024-03-07T05:06:55;23.00;;;11.90;;
18206;SDS011;9229;52.354;20.886;2024-03-07T05:11:59;22.02;;;12.00;;
18206;SDS011;9229;52.354;20.886;2024-03-07T05:17:01;26.90;;;12.32;;
18206;SDS011;9229;52.354;20.886;2024-03-07T05:22:06;22.98;;;13.10;;
18206;SDS011;9229;52.354;20.886;2024-03-07T05:27:10;23.92;;;11.23;;
18206;SDS011;9229;52.354;20.886;2024-03-07T05:32:22;22.27;;;10.35;;
18206;SDS011;9229;52.354;20.886;2024-03-07T05:37:25;26.35;;;12.38;;
18206;SDS011;9229;52.354;20.886;2024-03-07T05:42:29;27.65;;;12.15;;
18206;SDS011;9229;52.354;20.886;2024-03-07T05:47:31;23.42;;;11.15;;
18206;SDS011;9229;52.354;20.886;2024-03-07T05:52:35;27.67;;;11.65;;
18206;SDS011;9229;52.354;20.886;2024-03-07T05:57:39;26.60;;;12.52;;
18206;SDS011;9229;52.354;20.886;2024-03-07T06:02:43;21.23;;;11.45;;
18206;SDS011;9229;52.354;20.886;2024-03-07T06:07:50;32.53;;;12.07;;
18206;SDS011;9229;52.354;20.886;2024-03-07T06:12:53;25.67;;;10.73;;
18206;SDS011;9229;52.354;20.886;2024-03-07T06:17:57;23.58;;;11.90;;
18206;SDS011;9229;52.354;20.886;2024-03-07T06:23:00;21.45;;;11.73;;
18206;SDS011;9229;52.354;20.886;2024-03-07T06:28:10;34.10;;;11.52;;
18206;SDS011;9229;52.354;20.886;2024-03-07T06:33:12;23.65;;;11.65;;
18206;SDS011;9229;52.354;20.886;2024-03-07T06:38:16;23.27;;;12.38;;
18206;SDS011;9229;52.354;20.886;2024-03-07T06:43:21;27.80;;;12.23;;
18206;SDS011;9229;52.354;20.886;2024-03-07T06:48:24;26.08;;;11.50;;
18206;SDS011;9229;52.354;20.886;2024-03-07T06:53:29;26.15;;;12.52;;
18206;SDS011;9229;52.354;20.886;2024-03-07T06:58:34;21.65;;;11.43;;
18206;SDS011;9229;52.354;20.886;2024-03-07T07:03:36;28.40;;;11.95;;
18206;SDS011;9229;52.354;20.886;2024-03-07T07:08:39;21.98;;;10.50;;
18206;SDS011;9229;52.354;20.886;2024-03-07T07:13:42;26.23;;;11.15;;
18206;SDS011;9229;52.354;20.886;2024-03-07T07:18:47;19.73;;;10.50;;
18206;SDS011;9229;52.354;20.886;2024-03-07T07:23:49;22.52;;;9.57;;
18206;SDS011;9229;52.354;20.886;2024-03-07T07:28:52;16.55;;;9.98;;
18206;SDS011;9229;52.354;20.886;2024-03-07T07:33:55;17.38;;;9.20;;
18206;SDS011;9229;52.354;20.886;2024-03-07T07:38:59;13.32;;;8.23;;
18206;SDS011;9229;52.354;20.886;2024-03-07T07:44:05;17.67;;;8.85;;
18206;SDS011;9229;52.354;20.886;2024-03-07T07:49:11;15.18;;;7.95;;
18206;SDS011;9229;52.354;20.886;2024-03-07T07:54:13;15.55;;;8.38;;
18206;SDS011;9229;52.354;20.886;2024-03-07T07:59:17;19.33;;;7.95;;
18206;SDS011;9229;52.354;20.886;2024-03-07T08:04:19;14.85;;;8.23;;
18206;SDS011;9229;52.354;20.886;2024-03-07T08:09:21;20.85;;;8.13;;
18206;SDS011;9229;52.354;20.886;2024-03-07T08:14:26;11.57;;;7.38;;
18206;SDS011;9229;52.354;20.886;2024-03-07T08:19:29;11.88;;;7.55;;
18206;SDS011;9229;52.354;20.886;2024-03-07T08:24:32;13.10;;;7.47;;
18206;SDS011;9229;52.354;20.886;2024-03-07T08:29:35;16.98;;;7.70;;
18206;SDS011;9229;52.354;20.886;2024-03-07T08:34:38;13.73;;;7.30;;
18206;SDS011;9229;52.354;20.886;2024-03-07T08:39:40;12.73;;;7.63;;
18206;SDS011;9229;52.354;20.886;2024-03-07T08:44:45;9.75;;;6.55;;
18206;SDS011;9229;52.354;20.886;2024-03-07T08:49:47;19.50;;;6.57;;
18206;SDS011;9229;52.354;20.886;2024-03-07T08:54:52;7.68;;;5.97;;
18206;SDS011;9229;52.354;20.886;2024-03-07T08:59:59;6.80;;;6.03;;
18206;SDS011;9229;52.354;20.886;2024-03-07T09:05:08;5.53;;;5.03;;
18206;SDS011;9229;52.354;20.886;2024-03-07T09:10:10;8.93;;;6.38;;
18206;SDS011;9229;52.354;20.886;2024-03-07T09:15:21;7.82;;;5.70;;
18206;SDS011;9229;52.354;20.886;2024-03-07T09:20:23;9.77;;;5.78;;
18206;SDS011;9229;52.354;20.886;2024-03-07T09:25:28;17.23;;;6.00;;
18206;SDS011;9229;52.354;20.886;2024-03-07T09:30:34;8.27;;;6.10;;
18206;SDS011;9229;52.354;20.886;2024-03-07T09:35:39;11.82;;;6.43;;
18206;SDS011;9229;52.354;20.886;2024-03-07T09:40:42;10.07;;;6.53;;
18206;SDS011;9229;52.354;20.886;2024-03-07T09:45:46;8.65;;;6.13;;
18206;SDS011;9229;52.354;20.886;2024-03-07T09:50:51;11.02;;;7.25;;
18206;SDS011;9229;52.354;20.886;2024-03-07T09:55:58;10.23;;;6.43;;
18206;SDS011;9229;52.354;20.886;2024-03-07T10:01:06;7.47;;;5.85;;
18206;SDS011;9229;52.354;20.886;2024-03-07T10:06:12;8.05;;;6.25;;
18206;SDS011;9229;52.354;20.886;2024-03-07T10:11:14;9.68;;;6.65;;
18206;SDS011;9229;52.354;20.886;2024-03-07T10:16:19;12.65;;;5.80;;
18206;SDS011;9229;52.354;20.886;2024-03-07T10:21:23;8.00;;;5.88;;
18206;SDS011;9229;52.354;20.886;2024-03-07T10:26:25;7.32;;;5.70;;
18206;SDS011;9229;52.354;20.886;2024-03-07T10:31:30;9.90;;;6.13;;
18206;SDS011;9229;52.354;20.886;2024-03-07T10:36:33;10.00;;;6.38;;
18206;SDS011;9229;52.354;20.886;2024-03-07T10:41:44;9.10;;;5.82;;
18206;SDS011;9229;52.354;20.886;2024-03-07T10:46:53;8.85;;;6.45;;
18206;SDS011;9229;52.354;20.886;2024-03-07T10:52:02;9.07;;;6.05;;
18206;SDS011;9229;52.354;20.886;2024-03-07T10:57:15;6.88;;;5.63;;
18206;SDS011;9229;52.354;20.886;2024-03-07T11:07:53;6.90;;;5.07;;
18206;SDS011;9229;52.354;20.886;2024-03-07T11:13:41;7.43;;;5.85;;
18206;SDS011;9229;52.354;20.886;2024-03-07T11:44:31;9.48;;;5.63;;
18206;SDS011;9229;52.354;20.886;2024-03-07T11:56:02;14.75;;;5.70;;
18206;SDS011;9229;52.354;20.886;2024-03-07T12:13:44;17.38;;;6.53;;
18206;SDS011;9229;52.354;20.886;2024-03-07T12:19:37;16.17;;;9.38;;
18206;SDS011;9229;52.354;20.886;2024-03-07T12:37:04;8.95;;;5.40;;
18206;SDS011;9229;52.354;20.886;2024-03-07T12:42:41;8.10;;;6.00;;
18206;SDS011;9229;52.354;20.886;2024-03-07T12:53:44;8.15;;;5.60;;
18206;SDS011;9229;52.354;20.886;2024-03-07T12:58:47;7.22;;;5.35;;
18206;SDS011;9229;52.354;20.886;2024-03-07T13:03:56;8.70;;;6.25;;
18206;SDS011;9229;52.354;20.886;2024-03-07T13:08:58;10.23;;;6.05;;
18206;SDS011;9229;52.354;20.886;2024-03-07T13:14:00;7.05;;;5.30;;
18206;SDS011;9229;52.354;20.886;2024-03-07T13:19:04;5.85;;;5.18;;
18206;SDS011;9229;52.354;20.886;2024-03-07T13:24:06;6.10;;;5.50;;
18206;SDS011;9229;52.354;20.886;2024-03-07T13:29:09;11.82;;;5.90;;
18206;SDS011;9229;52.354;20.886;2024-03-07T13:34:14;7.07;;;5.55;;
18206;SDS011;9229;52.354;20.886;2024-03-07T13:39:16;9.07;;;6.00;;
18206;SDS011;9229;52.354;20.886;2024-03-07T13:44:18;9.75;;;5.70;;
18206;SDS011;9229;52.354;20.886;2024-03-07T13:49:24;14.05;;;5.78;;
18206;SDS011;9229;52.354;20.886;2024-03-07T13:54:29;9.07;;;5.95;;
18206;SDS011;9229;52.354;20.886;2024-03-07T13:59:40;8.02;;;5.75;;
18206;SDS011;9229;52.354;20.886;2024-03-07T14:05:16;7.15;;;5.90;;
18206;SDS011;9229;52.354;20.886;2024-03-07T14:10:58;8.30;;;6.13;;
18206;SDS011;9229;52.354;20.886;2024-03-07T14:16:35;15.73;;;6.72;;
18206;SDS011;9229;52.354;20.886;2024-03-07T14:22:03;7.97;;;6.35;;
18206;SDS011;9229;52.354;20.886;2024-03-07T14:27:27;11.70;;;7.00;;
18206;SDS011;9229;52.354;20.886;2024-03-07T14:32:39;11.98;;;5.35;;
18206;SDS011;9229;52.354;20.886;2024-03-07T14:37:52;9.48;;;6.32;;
18206;SDS011;9229;52.354;20.886;2024-03-07T14:42:58;7.63;;;6.20;;
18206;SDS011;9229;52.354;20.886;2024-03-07T14:48:07;23.33;;;7.75;;
18206;SDS011;9229;52.354;20.886;2024-03-07T14:53:12;7.72;;;5.65;;
18206;SDS011;9229;52.354;20.886;2024-03-07T14:58:17;27.20;;;6.75;;
18206;SDS011;9229;52.354;20.886;2024-03-07T15:03:20;10.80;;;6.03;;
18206;SDS011;9229;52.354;20.886;2024-03-07T15:20:18;9.65;;;6.22;;
18206;SDS011;9229;52.354;20.886;2024-03-07T15:26:03;13.27;;;6.38;;
18206;SDS011;9229;52.354;20.886;2024-03-07T15:32:26;12.50;;;6.53;;
18206;SDS011;9229;52.354;20.886;2024-03-07T15:37:54;10.60;;;6.13;;
18206;SDS011;9229;52.354;20.886;2024-03-07T15:43:07;9.02;;;6.03;;
18206;SDS011;9229;52.354;20.886;2024-03-07T15:48:16;10.18;;;6.45;;
18206;SDS011;9229;52.354;20.886;2024-03-07T15:53:59;12.35;;;6.43;;
18206;SDS011;9229;52.354;20.886;2024-03-07T15:59:06;10.95;;;6.00;;
18206;SDS011;9229;52.354;20.886;2024-03-07T16:04:10;9.73;;;6.45;;
18206;SDS011;9229;52.354;20.886;2024-03-07T16:09:16;9.60;;;6.43;;
18206;SDS011;9229;52.354;20.886;2024-03-07T16:20:53;14.25;;;5.80;;
18206;SDS011;9229;52.354;20.886;2024-03-07T16:32:52;11.68;;;6.50;;
18206;SDS011;9229;52.354;20.886;2024-03-07T16:38:21;21.17;;;6.35;;
18206;SDS011;9229;52.354;20.886;2024-03-07T16:43:31;18.20;;;6.63;;
18206;SDS011;9229;52.354;20.886;2024-03-07T16:49:01;15.68;;;6.57;;
18206;SDS011;9229;52.354;20.886;2024-03-07T16:54:22;13.68;;;6.78;;
18206;SDS011;9229;52.354;20.886;2024-03-07T16:59:57;17.85;;;6.80;;
18206;SDS011;9229;52.354;20.886;2024-03-07T17:05:29;17.85;;;7.95;;
18206;SDS011;9229;52.354;20.886;2024-03-07T17:11:21;32.15;;;9.50;;
18206;SDS011;9229;52.354;20.886;2024-03-07T17:17:09;17.08;;;8.98;;
18206;SDS011;9229;52.354;20.886;2024-03-07T17:22:17;25.08;;;9.35;;
18206;SDS011;9229;52.354;20.886;2024-03-07T17:27:35;22.40;;;9.93;;
18206;SDS011;9229;52.354;20.886;2024-03-07T17:32:40;30.08;;;10.88;;
18206;SDS011;9229;52.354;20.886;2024-03-07T17:43:23;41.67;;;10.38;;
18206;SDS011;9229;52.354;20.886;2024-03-07T17:48:27;33.90;;;13.45;;
18206;SDS011;9229;52.354;20.886;2024-03-07T17:53:35;30.23;;;11.73;;
18206;SDS011;9229;52.354;20.886;2024-03-07T17:58:42;38.00;;;11.77;;
18206;SDS011;9229;52.354;20.886;2024-03-07T18:03:45;53.15;;;12.60;;
18206;SDS011;9229;52.354;20.886;2024-03-07T18:08:47;48.97;;;11.25;;
18206;SDS011;9229;52.354;20.886;2024-03-07T18:13:53;34.25;;;9.07;;
18206;SDS011;9229;52.354;20.886;2024-03-07T18:19:01;28.10;;;8.93;;
18206;SDS011;9229;52.354;20.886;2024-03-07T18:24:10;27.33;;;11.23;;
18206;SDS011;9229;52.354;20.886;2024-03-07T18:29:13;39.08;;;13.05;;
18206;SDS011;9229;52.354;20.886;2024-03-07T18:34:15;24.80;;;12.73;;
18206;SDS011;9229;52.354;20.886;2024-03-07T18:39:23;38.78;;;13.20;;
18206;SDS011;9229;52.354;20.886;2024-03-07T18:44:27;43.15;;;12.63;;
18206;SDS011;9229;52.354;20.886;2024-03-07T18:49:30;38.38;;;11.77;;
18206;SDS011;9229;52.354;20.886;2024-03-07T18:54:35;27.55;;;11.35;;
18206;SDS011;9229;52.354;20.886;2024-03-07T18:59:43;35.05;;;9.63;;
18206;SDS011;9229;52.354;20.886;2024-03-07T19:04:45;32.20;;;11.57;;
18206;SDS011;9229;52.354;20.886;2024-03-07T19:09:47;45.40;;;11.88;;
18206;SDS011;9229;52.354;20.886;2024-03-07T19:14:54;32.22;;;10.75;;
18206;SDS011;9229;52.354;20.886;2024-03-07T19:19:56;32.28;;;11.27;;
18206;SDS011;9229;52.354;20.886;2024-03-07T19:24:59;23.60;;;10.30;;
18206;SDS011;9229;52.354;20.886;2024-03-07T19:30:06;29.10;;;10.75;;
18206;SDS011;9229;52.354;20.886;2024-03-07T19:35:09;31.40;;;12.50;;
18206;SDS011;9229;52.354;20.886;2024-03-07T19:40:14;50.08;;;17.20;;
18206;SDS011;9229;52.354;20.886;2024-03-07T19:45:22;45.70;;;16.80;;
18206;SDS011;9229;52.354;20.886;2024-03-07T19:50:24;54.03;;;15.15;;
18206;SDS011;9229;52.354;20.886;2024-03-07T19:55:26;30.70;;;13.80;;
18206;SDS011;9229;52.354;20.886;2024-03-07T20:00:33;55.65;;;11.93;;
18206;SDS011;9229;52.354;20.886;2024-03-07T20:05:38;38.00;;;13.20;;
18206;SDS011;9229;52.354;20.886;2024-03-07T20:10:43;43.38;;;14.65;;
18206;SDS011;9229;52.354;20.886;2024-03-07T20:15:49;34.67;;;13.63;;
18206;SDS011;9229;52.354;20.886;2024-03-07T20:20:53;44.97;;;15.35;;
18206;SDS011;9229;52.354;20.886;2024-03-07T20:25:57;47.30;;;15.32;;
18206;SDS011;9229;52.354;20.886;2024-03-07T20:31:01;39.05;;;14.43;;
18206;SDS011;9229;52.354;20.886;2024-03-07T20:36:08;31.70;;;15.05;;
18206;SDS011;9229;52.354;20.886;2024-03-07T20:41:14;59.55;;;19.95;;
18206;SDS011;9229;52.354;20.886;2024-03-07T20:46:20;54.33;;;18.50;;
18206;SDS011;9229;52.354;20.886;2024-03-07T20:51:26;49.88;;;17.48;;
18206;SDS011;9229;52.354;20.886;2024-03-07T20:56:33;51.63;;;17.15;;
18206;SDS011;9229;52.354;20.886;2024-03-07T21:01:38;51.47;;;17.80;;
18206;SDS011;9229;52.354;20.886;2024-03-07T21:06:43;48.15;;;16.75;;
18206;SDS011;9229;52.354;20.886;2024-03-07T21:11:46;51.75;;;17.73;;
18206;SDS011;9229;52.354;20.886;2024-03-07T21:16:50;46.97;;;16.23;;
18206;SDS011;9229;52.354;20.886;2024-03-07T21:21:52;43.15;;;15.32;;
18206;SDS011;9229;52.354;20.886;2024-03-07T21:26:55;41.10;;;16.70;;
18206;SDS011;9229;52.354;20.886;2024-03-07T21:32:02;48.97;;;17.67;;
18206;SDS011;9229;52.354;20.886;2024-03-07T21:37:07;49.47;;;19.33;;
18206;SDS011;9229;52.354;20.886;2024-03-07T21:42:11;49.80;;;20.52;;
18206;SDS011;9229;52.354;20.886;2024-03-07T21:47:14;54.25;;;24.58;;
18206;SDS011;9229;52.354;20.886;2024-03-07T21:52:23;60.28;;;20.25;;
18206;SDS011;9229;52.354;20.886;2024-03-07T21:57:27;95.00;;;33.42;;
18206;SDS011;9229;52.354;20.886;2024-03-07T22:02:31;106.90;;;34.53;;
18206;SDS011;9229;52.354;20.886;2024-03-07T22:07:33;90.05;;;29.58;;
18206;SDS011;9229;52.354;20.886;2024-03-07T22:12:38;62.80;;;23.35;;
18206;SDS011;9229;52.354;20.886;2024-03-07T22:17:42;84.40;;;28.30;;
18206;SDS011;9229;52.354;20.886;2024-03-07T22:22:44;86.15;;;30.38;;
18206;SDS011;9229;52.354;20.886;2024-03-07T22:27:47;83.80;;;30.75;;
18206;SDS011;9229;52.354;20.886;2024-03-07T22:33:03;89.97;;;31.73;;
18206;SDS011;9229;52.354;20.886;2024-03-07T22:38:05;107.18;;;35.38;;
18206;SDS011;9229;52.354;20.886;2024-03-07T22:43:13;89.22;;;32.90;;
18206;SDS011;9229;52.354;20.886;2024-03-07T22:48:17;91.25;;;32.83;;
18206;SDS011;9229;52.354;20.886;2024-03-07T22:53:19;101.68;;;33.30;;
18206;SDS011;9229;52.354;20.886;2024-03-07T22:58:22;92.05;;;34.53;;
18206;SDS011;9229;52.354;20.886;2024-03-07T23:03:28;126.60;;;37.80;;
18206;SDS011;9229;52.354;20.886;2024-03-07T23:08:32;105.63;;;37.50;;
18206;SDS011;9229;52.354;20.886;2024-03-07T23:13:35;102.75;;;35.25;;
18206;SDS011;9229;52.354;20.886;2024-03-07T23:18:38;147.65;;;52.67;;
18206;SDS011;9229;52.354;20.886;2024-03-07T23:23:41;109.63;;;39.92;;
18206;SDS011;9229;52.354;20.886;2024-03-07T23:28:46;98.97;;;34.38;;
18206;SDS011;9229;52.354;20.886;2024-03-07T23:33:50;104.00;;;38.38;;
18206;SDS011;9229;52.354;20.886;2024-03-07T23:38:54;106.43;;;34.65;;
18206;SDS011;9229;52.354;20.886;2024-03-07T23:43:59;106.93;;;37.22;;
18206;SDS011;9229;52.354;20.886;2024-03-07T23:49:06;99.78;;;36.38;;
18206;SDS011;9229;52.354;20.886;2024-03-07T23:54:07;103.60;;;39.25;;
18206;SDS011;9229;52.354;20.886;2024-03-07T23:59:11;97.07;;;34.97;;
